Time;durP1;ratioP1;P1;durP2;ratioP2;P2;SDS_P1;SDS_P2;PMS_P1;PMS_P2;Temp;Humidity;BMP_temperature;BMP_pressure;BME280_temperature;BME280_humidity;BME280_pressure;Samples;Min_cycle;Max_cycle;Signal;HPM_P1;HPM_P2
2023/09/30 00:01:01;;;;;;;8.38;3.30;;;;;;;16.56;100.00;98174.75;5021459;28;20790;-82
2023/09/30 00:03:28;;;;;;;9.80;3.90;;;;;;;16.58;100.00;98183.31;5019419;28;20416;-82
2023/09/30 00:05:54;;;;;;;9.30;3.75;;;;;;;16.59;100.00;98179.56;5016765;28;20401;-82
2023/09/30 00:08:22;;;;;;;9.65;3.47;;;;;;;16.58;100.00;98170.75;5019324;28;20404;-82
2023/09/30 00:10:48;;;;;;;8.90;3.87;;;;;;;16.57;100.00;98163.81;5020440;28;20444;-82
2023/09/30 00:13:14;;;;;;;10.30;3.65;;;;;;;16.56;100.00;98164.06;5021016;28;20811;-81
2023/09/30 00:15:40;;;;;;;13.38;4.30;;;;;;;16.50;100.00;98155.25;5020045;28;20389;-83
2023/09/30 00:18:07;;;;;;;8.27;3.70;;;;;;;16.45;100.00;98149.94;5020773;28;20396;-82
2023/09/30 00:20:33;;;;;;;10.50;3.90;;;;;;;16.37;100.00;98155.81;5021680;28;20432;-82
2023/09/30 00:22:59;;;;;;;9.15;4.13;;;;;;;16.32;100.00;98149.66;5026037;28;20454;-82
2023/09/30 00:25:28;;;;;;;9.95;3.75;;;;;;;16.30;100.00;98152.63;5018901;28;20462;-82
2023/09/30 00:27:54;;;;;;;9.00;3.60;;;;;;;16.25;100.00;98155.28;5018701;28;20401;-83
2023/09/30 00:30:21;;;;;;;8.40;3.13;;;;;;;16.21;100.00;98155.03;5018628;28;20399;-83
2023/09/30 00:32:47;;;;;;;7.28;3.20;;;;;;;16.18;100.00;98160.09;5017197;28;20447;-81
2023/09/30 00:35:14;;;;;;;9.05;3.70;;;;;;;16.15;100.00;98161.44;5018931;28;20889;-82
2023/09/30 00:37:41;;;;;;;6.15;2.92;;;;;;;16.15;100.00;98169.47;5018174;28;20408;-80
2023/09/30 00:40:14;;;;;;;8.05;3.40;;;;;;;16.12;100.00;98166.50;5017449;28;20401;-80
2023/09/30 00:42:41;;;;;;;8.03;2.80;;;;;;;16.11;100.00;98167.59;5020382;28;20456;-83
2023/09/30 00:45:10;;;;;;;6.82;3.03;;;;;;;16.10;100.00;98173.97;5017818;28;20503;-83
2023/09/30 00:47:36;;;;;;;7.20;3.10;;;;;;;16.07;100.00;98170.00;5018323;28;20444;-82
2023/09/30 00:50:04;;;;;;;6.75;2.50;;;;;;;16.05;100.00;98176.66;5019248;28;20407;-83
2023/09/30 00:52:33;;;;;;;6.82;2.70;;;;;;;16.04;100.00;98175.88;5018929;28;20885;-82
2023/09/30 00:54:59;;;;;;;4.87;2.40;;;;;;;16.04;100.00;98178.53;5017708;28;20498;-82
2023/09/30 00:57:27;;;;;;;4.65;2.40;;;;;;;16.05;100.00;98171.31;5015446;28;20468;-81
2023/09/30 00:59:56;;;;;;;4.50;2.00;;;;;;;16.08;100.00;98170.81;5015242;28;20428;-81
2023/09/30 01:02:23;;;;;;;3.53;1.88;;;;;;;16.10;100.00;98165.97;5015974;28;20408;-83
2023/09/30 01:04:49;;;;;;;4.28;2.05;;;;;;;16.13;100.00;98168.94;5015631;28;20405;-82
2023/09/30 01:07:16;;;;;;;4.32;2.35;;;;;;;16.14;100.00;98173.19;5016295;28;20403;-79
2023/09/30 01:09:42;;;;;;;3.33;2.00;;;;;;;16.16;100.00;98171.03;5017003;28;20817;-82
2023/09/30 01:12:08;;;;;;;7.05;2.78;;;;;;;16.17;100.00;98175.31;5016838;28;20421;-82
2023/09/30 01:14:36;;;;;;;4.53;2.38;;;;;;;16.17;100.00;98167.31;5015885;28;20393;-83
2023/09/30 01:17:04;;;;;;;4.15;2.15;;;;;;;16.18;100.00;98174.25;5015894;28;20741;-82
2023/09/30 01:19:30;;;;;;;4.18;2.22;;;;;;;16.19;100.00;98178.53;5014961;28;21017;-82
2023/09/30 01:21:59;;;;;;;4.95;2.00;;;;;;;16.19;100.00;98170.53;5016003;28;20788;-81
2023/09/30 01:24:25;;;;;;;7.72;2.70;;;;;;;16.19;100.00;98172.38;5015198;28;20408;-82
2023/09/30 01:26:52;;;;;;;6.03;2.75;;;;;;;16.17;100.00;98172.66;5015395;28;20407;-81
2023/09/30 01:29:19;;;;;;;6.70;2.67;;;;;;;16.15;100.00;98177.47;5015529;28;20440;-82
2023/09/30 01:31:48;;;;;;;5.70;2.63;;;;;;;16.14;100.00;98172.41;5015975;28;20420;-82
2023/09/30 01:34:15;;;;;;;5.35;2.35;;;;;;;16.14;100.00;98180.41;5014606;28;20396;-80
2023/09/30 01:36:41;;;;;;;7.03;2.72;;;;;;;16.13;100.00;98181.47;5015544;28;20896;-78
2023/09/30 01:39:10;;;;;;;4.68;2.10;;;;;;;16.13;100.00;98178.81;4998641;28;20409;-80
2023/09/30 01:41:36;;;;;;;4.65;2.28;;;;;;;16.13;100.00;98176.94;5015336;28;20428;-79
2023/09/30 01:44:03;;;;;;;7.35;3.03;;;;;;;16.14;100.00;98170.53;5014399;28;20399;-80
2023/09/30 01:46:29;;;;;;;7.07;2.60;;;;;;;16.13;100.00;98182.28;5015217;28;20475;-81
2023/09/30 01:48:55;;;;;;;5.13;2.72;;;;;;;16.11;100.00;98176.41;5014920;28;20404;-82
2023/09/30 01:51:21;;;;;;;4.75;2.50;;;;;;;16.09;100.00;98175.03;5014961;28;20459;-81
2023/09/30 01:53:48;;;;;;;6.55;2.90;;;;;;;16.07;100.00;98170.00;5015518;28;20472;-82
2023/09/30 01:56:15;;;;;;;5.80;2.90;;;;;;;16.07;100.00;98164.66;5015677;28;20401;-81
2023/09/30 01:58:42;;;;;;;7.15;3.05;;;;;;;16.06;100.00;98167.59;5015838;28;20580;-81
2023/09/30 02:01:09;;;;;;;6.20;2.75;;;;;;;16.05;100.00;98161.44;5016056;28;20404;-83
2023/09/30 02:03:36;;;;;;;5.32;2.30;;;;;;;16.02;100.00;98166.50;5015942;28;20488;-82
2023/09/30 02:06:03;;;;;;;7.97;3.30;;;;;;;15.99;100.00;98169.72;5017908;28;20461;-82
2023/09/30 02:08:30;;;;;;;5.38;3.00;;;;;;;15.91;100.00;98171.06;5018674;28;20443;-82
2023/09/30 02:10:56;;;;;;;8.73;3.38;;;;;;;15.83;100.00;98167.03;5017699;28;20412;-82
2023/09/30 02:13:24;;;;;;;4.22;2.70;;;;;;;15.79;100.00;98165.16;5018092;28;20463;-83
2023/09/30 02:15:50;;;;;;;4.63;2.33;;;;;;;15.74;100.00;98175.81;5018040;28;20972;-82
2023/09/30 02:18:17;;;;;;;4.78;2.83;;;;;;;15.68;100.00;98172.34;5018940;28;20440;-80
2023/09/30 02:20:44;;;;;;;4.45;2.53;;;;;;;15.67;100.00;98181.44;5018661;28;20408;-82
2023/09/30 02:23:11;;;;;;;6.00;2.70;;;;;;;15.64;100.00;98181.13;5018740;28;20397;-80
2023/09/30 02:25:37;;;;;;;4.37;2.53;;;;;;;15.64;100.00;98181.13;5018483;28;20397;-84
2023/09/30 02:28:04;;;;;;;5.78;2.53;;;;;;;15.60;100.00;98183.53;5018438;28;20626;-83
2023/09/30 02:30:32;;;;;;;3.05;2.08;;;;;;;15.62;100.00;98188.63;5018195;28;20819;-82
2023/09/30 02:32:59;;;;;;;4.60;2.60;;;;;;;15.61;100.00;98195.03;5019586;28;20680;-81
2023/09/30 02:35:26;;;;;;;4.40;2.10;;;;;;;15.60;100.00;98188.88;5023361;28;20424;-83
2023/09/30 02:37:52;;;;;;;3.45;1.95;;;;;;;15.63;100.00;98195.56;5024022;28;20440;-82
2023/09/30 02:40:19;;;;;;;6.73;2.60;;;;;;;15.63;100.00;98192.91;5018898;28;20936;-83
2023/09/30 02:42:47;;;;;;;5.63;2.45;;;;;;;15.62;100.00;98194.78;5018218;28;20455;-83
2023/09/30 02:45:17;;;;;;;5.55;3.00;;;;;;;15.63;100.00;98185.69;5018344;28;20400;-83
2023/09/30 02:47:44;;;;;;;5.65;2.45;;;;;;;15.66;100.00;98192.34;5000273;28;20585;-84
2023/09/30 02:50:13;;;;;;;5.95;2.88;;;;;;;15.65;100.00;98196.09;5018580;28;20761;-82
2023/09/30 02:52:42;;;;;;;6.22;3.22;;;;;;;15.66;100.00;98187.03;5018457;28;20448;-83
2023/09/30 02:55:09;;;;;;;4.60;2.80;;;;;;;15.66;100.00;98187.03;5019417;28;20412;-82
2023/09/30 02:57:36;;;;;;;5.73;3.57;;;;;;;15.64;100.00;98187.28;5020896;28;20773;-80
2023/09/30 03:00:11;;;;;;;6.20;3.50;;;;;;;15.63;100.00;98191.03;5018462;28;20396;-81
2023/09/30 03:02:38;;;;;;;5.35;3.30;;;;;;;15.63;100.00;98198.25;5015911;28;21157;-81
2023/09/30 03:05:07;;;;;;;5.82;3.25;;;;;;;15.59;100.00;98197.94;5016337;28;20745;-82
2023/09/30 03:07:33;;;;;;;12.33;5.00;;;;;;;15.56;100.00;98198.50;5016131;28;20389;-83
2023/09/30 03:10:04;;;;;;;9.35;3.88;;;;;;;15.55;100.00;98220.09;5017415;28;20765;-82
2023/09/30 03:12:31;;;;;;;11.90;4.53;;;;;;;15.50;100.00;98226.19;5017112;28;20416;-83
2023/09/30 03:14:58;;;;;;;8.52;3.80;;;;;;;15.44;100.00;98228.03;5017112;28;20444;-82
2023/09/30 03:17:25;;;;;;;8.30;4.07;;;;;;;15.41;100.00;98228.53;5017279;28;20399;-82
2023/09/30 03:19:51;;;;;;;8.45;3.50;;;;;;;15.42;100.00;98230.16;5018732;28;20408;-82
2023/09/30 03:22:19;;;;;;;5.93;2.90;;;;;;;15.42;100.00;98232.00;5020819;28;20435;-83
2023/09/30 03:24:45;;;;;;;5.43;2.95;;;;;;;15.43;100.00;98221.09;5015026;28;20462;-81
2023/09/30 03:27:11;;;;;;;7.40;3.00;;;;;;;15.44;100.00;98229.91;5014464;28;20814;-82
2023/09/30 03:29:38;;;;;;;7.18;3.13;;;;;;;15.46;100.00;98225.09;5014109;28;20852;-81
2023/09/30 03:32:04;;;;;;;7.20;3.13;;;;;;;15.45;100.00;98226.16;5013804;28;20420;-81
2023/09/30 03:34:30;;;;;;;4.45;2.67;;;;;;;15.45;100.00;98226.16;5014307;28;20424;-81
2023/09/30 03:36:58;;;;;;;6.80;3.00;;;;;;;15.44;100.00;98229.91;5014203;28;20405;-80
2023/09/30 03:39:27;;;;;;;3.63;2.40;;;;;;;15.44;100.00;98222.69;5014519;28;20404;-83
2023/09/30 03:41:54;;;;;;;3.70;2.10;;;;;;;15.43;100.00;98210.41;4995874;28;20412;-81
2023/09/30 03:44:20;;;;;;;3.42;2.00;;;;;;;15.43;100.00;98209.59;5015516;28;20565;-80
2023/09/30 03:46:46;;;;;;;4.83;2.43;;;;;;;15.42;100.00;98205.34;5015789;28;20397;-80
2023/09/30 03:49:13;;;;;;;5.72;2.38;;;;;;;15.42;100.00;98208.00;5015092;28;20405;-82
2023/09/30 03:51:39;;;;;;;3.80;2.53;;;;;;;15.40;100.00;98199.47;5016730;28;20430;-83
2023/09/30 03:54:06;;;;;;;4.22;2.42;;;;;;;15.39;100.00;98193.34;5017300;28;20502;-80
2023/09/30 03:56:34;;;;;;;6.18;2.90;;;;;;;15.37;100.00;98194.66;5014284;28;20670;-82
2023/09/30 03:59:00;;;;;;;4.70;2.58;;;;;;;15.34;100.00;98197.84;5013911;28;20397;-81
2023/09/30 04:01:27;;;;;;;5.60;2.50;;;;;;;15.33;100.00;98204.25;5013785;28;20836;-80
2023/09/30 04:03:56;;;;;;;6.28;2.40;;;;;;;15.31;100.00;98203.72;5013364;28;20428;-81
2023/09/30 04:06:22;;;;;;;2.72;2.10;;;;;;;15.30;100.00;98202.09;5013955;28;20397;-81
2023/09/30 04:08:48;;;;;;;4.10;2.42;;;;;;;15.27;100.00;98207.94;5014078;28;20483;-82
2023/09/30 04:11:18;;;;;;;4.27;2.70;;;;;;;15.25;100.00;98218.91;5014233;28;20411;-82
2023/09/30 04:13:46;;;;;;;4.45;2.20;;;;;;;15.24;100.00;98219.97;5015579;28;20978;-81
2023/09/30 04:16:12;;;;;;;5.55;2.30;;;;;;;15.21;100.00;98204.47;5015887;28;20895;-84
2023/09/30 04:18:41;;;;;;;4.10;2.38;;;;;;;15.22;100.00;98210.59;5015294;28;20432;-83
2023/09/30 04:21:07;;;;;;;4.22;2.20;;;;;;;15.20;100.00;98205.53;5016097;28;20444;-83
2023/09/30 04:23:36;;;;;;;4.95;2.20;;;;;;;15.22;100.00;98213.25;5016488;28;20773;-82
2023/09/30 04:26:03;;;;;;;3.85;2.60;;;;;;;15.20;100.00;98207.38;5016814;28;20400;-81
2023/09/30 04:28:29;;;;;;;8.10;3.40;;;;;;;15.16;100.00;98199.13;5016292;28;20511;-83
2023/09/30 04:30:58;;;;;;;4.68;2.45;;;;;;;15.14;100.00;98198.56;5016522;28;20407;-81
2023/09/30 04:33:24;;;;;;;3.10;2.50;;;;;;;15.11;100.00;98201.75;5011776;28;20422;-83
2023/09/30 04:35:50;;;;;;;4.28;2.80;;;;;;;15.10;100.00;98214.31;4996584;28;20417;-82
2023/09/30 04:38:17;;;;;;;5.93;2.58;;;;;;;15.06;100.00;98209.72;4994447;28;20395;-81
2023/09/30 04:40:44;;;;;;;3.47;2.15;;;;;;;15.04;100.00;98223.31;4993232;28;20457;-82
2023/09/30 04:43:10;;;;;;;6.18;3.42;;;;;;;15.02;100.00;98228.13;4992028;28;20453;-81
2023/09/30 04:45:36;;;;;;;5.00;3.05;;;;;;;15.00;100.00;98232.91;4992320;28;20756;-82
2023/09/30 04:48:04;;;;;;;6.70;3.35;;;;;;;14.99;100.00;98227.81;4995598;28;20437;-81
2023/09/30 04:50:30;;;;;;;6.47;3.38;;;;;;;15.01;100.00;98233.72;4992234;28;20567;-84
2023/09/30 04:53:00;;;;;;;7.05;2.95;;;;;;;15.03;100.00;98234.25;4998784;28;20988;-82
2023/09/30 04:55:26;;;;;;;4.95;2.47;;;;;;;15.03;100.00;98234.25;5007367;28;20403;-85
2023/09/30 04:57:53;;;;;;;5.17;2.80;;;;;;;15.06;100.00;98247.06;4997947;28;20396;-85
2023/09/30 05:00:25;;;;;;;6.83;2.77;;;;;;;15.07;100.00;98243.34;4998593;28;20563;-81
2023/09/30 05:02:52;;;;;;;3.80;2.40;;;;;;;15.07;100.00;98252.13;5018838;28;20386;-84
2023/09/30 05:05:19;;;;;;;3.90;2.40;;;;;;;15.07;100.00;98257.47;5021819;28;20424;-81
2023/09/30 05:07:47;;;;;;;4.28;2.30;;;;;;;15.06;100.00;98258.53;5024159;28;20438;-80
2023/09/30 05:10:15;;;;;;;4.43;2.35;;;;;;;15.06;100.00;98252.38;5010900;28;20402;-79
2023/09/30 05:12:45;;;;;;;3.85;2.28;;;;;;;15.07;100.00;98259.34;5007578;28;20422;-82
2023/09/30 05:15:12;;;;;;;3.40;1.98;;;;;;;15.07;100.00;98262.00;5004524;28;20403;-81
2023/09/30 05:17:39;;;;;;;3.90;2.63;;;;;;;15.05;100.00;98256.91;4998646;28;20462;-81
2023/09/30 05:20:06;;;;;;;7.63;2.95;;;;;;;15.05;100.00;98258.78;5000359;28;20671;-82
2023/09/30 05:22:34;;;;;;;4.20;2.20;;;;;;;15.05;100.00;98262.25;4999454;28;20627;-81
2023/09/30 05:25:00;;;;;;;6.03;2.38;;;;;;;15.05;100.00;98253.44;4998046;28;20409;-81
2023/09/30 05:27:27;;;;;;;2.67;2.03;;;;;;;15.06;100.00;98249.72;4997176;28;20417;-81
2023/09/30 05:29:53;;;;;;;3.80;2.22;;;;;;;15.06;100.00;98249.72;4997859;28;20462;-82
2023/09/30 05:32:21;;;;;;;6.03;2.72;;;;;;;15.05;100.00;98246.25;4997221;28;20441;-82
2023/09/30 05:34:48;;;;;;;4.68;2.38;;;;;;;15.02;100.00;98243.31;4996765;28;20481;-81
2023/09/30 05:37:14;;;;;;;3.70;2.40;;;;;;;14.98;100.00;98237.69;4996687;28;20407;-80
2023/09/30 05:39:41;;;;;;;6.25;2.78;;;;;;;14.93;100.00;98245.66;4996487;28;20395;-81
2023/09/30 05:42:09;;;;;;;3.72;2.45;;;;;;;14.89;100.00;98244.56;5000730;28;20477;-81
2023/09/30 05:44:35;;;;;;;6.60;3.03;;;;;;;14.86;100.00;98246.94;4999327;28;20402;-80
2023/09/30 05:47:01;;;;;;;5.82;3.25;;;;;;;14.82;100.00;98245.84;5000676;28;20395;-81
2023/09/30 05:49:27;;;;;;;5.72;3.22;;;;;;;14.76;100.00;98250.34;5002496;28;20399;-83
2023/09/30 05:51:55;;;;;;;4.82;3.10;;;;;;;14.70;100.00;98254.84;4998698;28;20390;-83
2023/09/30 05:54:21;;;;;;;5.00;2.75;;;;;;;14.67;100.00;98267.84;4998436;28;20434;-81
2023/09/30 05:56:49;;;;;;;4.28;2.50;;;;;;;14.66;100.00;98274.25;5000123;28;20409;-82
2023/09/30 05:59:15;;;;;;;4.18;2.60;;;;;;;14.64;100.00;98273.72;4999741;28;20433;-81
2023/09/30 06:01:42;;;;;;;4.95;2.95;;;;;;;14.63;100.00;98277.44;4996966;28;20398;-79
2023/09/30 06:04:08;;;;;;;6.40;3.70;;;;;;;14.63;100.00;98272.09;4995094;28;20861;-80
2023/09/30 06:06:34;;;;;;;5.45;3.33;;;;;;;14.64;100.00;98265.72;4996621;28;20457;-80
2023/09/30 06:09:00;;;;;;;6.50;2.90;;;;;;;14.67;100.00;98274.00;4996347;28;20406;-80
2023/09/30 06:11:31;;;;;;;5.50;2.90;;;;;;;14.70;100.00;98275.34;4997357;28;20402;-85
2023/09/30 06:14:02;;;;;;;5.25;2.35;;;;;;;14.75;100.00;98286.03;5001222;28;20426;-86
2023/09/30 06:16:29;;;;;;;4.35;2.60;;;;;;;14.81;100.00;98301.00;4999222;28;20541;-82
2023/09/30 06:18:55;;;;;;;5.38;2.67;;;;;;;14.88;100.00;98308.81;4999287;28;20434;-83
2023/09/30 06:21:24;;;;;;;4.40;2.38;;;;;;;14.93;100.00;98301.66;5001857;28;20421;-85
2023/09/30 06:23:53;;;;;;;4.30;2.22;;;;;;;15.00;100.00;98310.22;5002614;28;20417;-82
2023/09/30 06:26:20;;;;;;;3.80;2.20;;;;;;;15.07;100.00;98305.47;5000978;28;20403;-83
2023/09/30 06:28:47;;;;;;;5.60;3.30;;;;;;;15.10;100.00;98307.63;5002104;28;20407;-83
2023/09/30 06:31:15;;;;;;;8.18;3.30;;;;;;;15.15;100.00;98306.03;5007804;28;20437;-83
2023/09/30 06:33:41;;;;;;;6.15;3.20;;;;;;;15.16;100.00;98303.13;5000175;28;20424;-83
2023/09/30 06:36:13;;;;;;;4.47;3.03;;;;;;;15.19;100.00;98305.25;4999241;28;20434;-84
2023/09/30 06:38:41;;;;;;;8.65;4.07;;;;;;;15.20;100.00;98306.88;4997148;28;20403;-83
2023/09/30 06:41:08;;;;;;;5.85;3.30;;;;;;;15.24;100.00;98309.84;4998021;28;20407;-81
2023/09/30 06:43:37;;;;;;;5.97;3.13;;;;;;;15.26;100.00;98308.50;5000316;28;20417;-82
2023/09/30 06:46:09;;;;;;;6.63;3.10;;;;;;;15.33;100.00;98313.63;5003166;28;20474;-83
2023/09/30 06:48:36;;;;;;;3.70;2.65;;;;;;;15.42;100.00;98320.88;5005359;28;20497;-83
2023/09/30 06:51:03;;;;;;;7.18;3.42;;;;;;;15.55;100.00;98322.31;4996759;28;20411;-83
2023/09/30 06:53:29;;;;;;;5.15;2.70;;;;;;;15.67;100.00;98322.88;4995528;28;20491;-81
2023/09/30 06:55:55;;;;;;;7.32;2.83;;;;;;;15.80;100.00;98326.94;4995334;28;20402;-83
2023/09/30 06:58:22;;;;;;;4.75;2.92;;;;;;;15.90;100.00;98340.34;4996171;28;20394;-82
2023/09/30 07:00:49;;;;;;;4.95;2.80;;;;;;;15.95;100.00;98343.00;4995495;28;20444;-83
2023/09/30 07:03:15;;;;;;;6.72;3.47;;;;;;;15.96;100.00;98325.94;5000239;28;20445;-84
2023/09/30 07:05:43;;;;;;;7.10;2.97;;;;;;;15.96;100.00;98325.94;4998218;28;20395;-82
2023/09/30 07:08:09;;;;;;;5.43;3.00;;;;;;;15.94;100.00;98321.94;4996681;28;20444;-85
2023/09/30 07:10:35;;;;;;;4.95;2.83;;;;;;;15.91;100.00;98315.25;4998251;28;20426;-86
2023/09/30 07:13:03;;;;;;;10.32;4.53;;;;;;;15.88;100.00;98313.88;5000209;28;20422;-82
2023/09/30 07:15:30;;;;;;;8.13;3.53;;;;;;;15.85;100.00;98314.44;4998141;28;20399;-85
2023/09/30 07:17:56;;;;;;;9.75;4.13;;;;;;;15.83;100.00;98321.09;5000709;28;20522;-85
2023/09/30 07:20:22;;;;;;;9.25;4.55;;;;;;;15.82;100.00;98322.94;5004458;28;20452;-88
2023/09/30 07:22:50;;;;;;;7.97;4.05;;;;;;;15.83;100.00;98323.75;5006626;28;20517;-87
2023/09/30 07:25:17;;;;;;;6.93;3.55;;;;;;;15.85;100.00;98326.97;5019170;28;20464;-86
2023/09/30 07:27:43;;;;;;;5.53;3.28;;;;;;;15.88;100.00;98343.25;5020113;28;20405;-86
2023/09/30 07:30:12;;;;;;;5.97;3.10;;;;;;;15.93;100.00;98344.34;5021311;28;20393;-85
2023/09/30 07:32:38;;;;;;;4.68;3.13;;;;;;;16.00;100.00;98355.59;5027268;28;20486;-85
2023/09/30 07:35:05;;;;;;;5.30;3.20;;;;;;;16.08;100.00;98361.25;5025554;28;20388;-85
2023/09/30 07:37:31;;;;;;;10.30;4.68;;;;;;;16.13;100.00;98350.56;5025289;28;20416;-84
2023/09/30 07:39:59;;;;;;;7.07;4.10;;;;;;;16.17;100.00;98335.59;5020018;28;20401;-84
2023/09/30 07:42:25;;;;;;;7.15;3.97;;;;;;;16.19;100.00;98333.47;5010213;28;20421;-87
2023/09/30 07:44:52;;;;;;;5.57;3.47;;;;;;;16.25;100.00;98342.28;5010959;28;20559;-87
2023/09/30 07:47:19;;;;;;;7.10;3.20;;;;;;;16.37;100.00;98344.75;5385817;23;20444;-86
2023/09/30 07:49:45;;;;;;;4.43;2.83;;;;;;;16.53;100.00;98349.03;5200389;23;20437;-84
2023/09/30 07:52:11;;;;;;;6.50;3.03;;;;;;;16.68;100.00;98351.75;5006552;28;20523;-85
2023/09/30 07:54:37;;;;;;;5.10;2.80;;;;;;;16.83;100.00;98359.78;5006961;28;20733;-85
2023/09/30 07:57:05;;;;;;;3.72;2.40;;;;;;;16.96;100.00;98366.47;5005793;28;20417;-86
2023/09/30 07:59:33;;;;;;;4.18;2.53;;;;;;;17.12;100.00;98367.25;5005320;28;20414;-86
2023/09/30 08:01:59;;;;;;;3.85;2.30;;;;;;;17.26;100.00;98368.31;5004257;28;20890;-82
2023/09/30 08:04:25;;;;;;;4.47;2.20;;;;;;;17.43;100.00;98371.50;5004537;28;20894;-81
2023/09/30 08:06:51;;;;;;;5.75;3.20;;;;;;;17.62;100.00;98367.19;5003125;28;20477;-82
2023/09/30 08:09:18;;;;;;;6.13;3.20;;;;;;;17.68;100.00;98363.41;5005859;28;20404;-82
2023/09/30 08:11:45;;;;;;;8.32;3.53;;;;;;;17.79;100.00;98354.28;4998756;28;20398;-82
2023/09/30 08:14:12;;;;;;;4.15;2.97;;;;;;;17.99;100.00;98353.41;4997620;28;20434;-83
2023/09/30 08:16:39;;;;;;;6.15;3.17;;;;;;;18.18;100.00;98346.34;4998324;28;20405;-81
2023/09/30 08:19:05;;;;;;;6.38;2.75;;;;;;;18.32;100.00;98348.41;4997716;28;20434;-84
2023/09/30 08:21:31;;;;;;;3.70;2.35;;;;;;;18.46;100.00;98355.56;4995749;28;20899;-81
2023/09/30 08:23:58;;;;;;;7.13;2.88;;;;;;;18.55;100.00;98345.03;5003271;28;20925;-81
2023/09/30 08:26:24;;;;;;;5.65;2.55;;;;;;;18.59;100.00;98356.03;5003758;28;20983;-82
2023/09/30 08:28:50;;;;;;;3.75;2.10;;;;;;;18.53;100.00;98355.25;5002040;28;20396;-83
2023/09/30 08:31:18;;;;;;;6.17;2.90;;;;;;;18.45;100.00;98347.78;5004243;28;20515;-80
2023/09/30 08:33:45;;;;;;;4.00;2.40;;;;;;;18.49;100.00;98352.31;5004159;28;20790;-82
2023/09/30 08:36:12;;;;;;;4.30;2.40;;;;;;;18.65;100.00;98353.03;5012920;28;20796;-83
2023/09/30 08:38:40;;;;;;;5.47;2.63;;;;;;;18.80;100.00;98357.47;5003575;28;20410;-83
2023/09/30 08:41:10;;;;;;;10.10;3.58;;;;;;;18.86;100.00;98351.81;5007287;28;20402;-82
2023/09/30 08:43:38;;;;;;;9.52;3.70;;;;;;;18.80;100.00;98344.06;5005817;28;20431;-79
2023/09/30 08:46:05;;;;;;;6.27;3.00;;;;;;;19.02;100.00;98332.91;5000863;28;20390;-82
2023/09/30 08:48:33;;;;;;;5.93;2.85;;;;;;;19.23;100.00;98332.44;5016747;28;20411;-82
2023/09/30 08:51:00;;;;;;;3.53;2.45;;;;;;;19.46;100.00;98341.59;5006566;28;20493;-82
2023/09/30 08:53:28;;;;;;;6.57;3.05;;;;;;;19.56;100.00;98348.75;5002452;28;20425;-79
2023/09/30 08:55:56;;;;;;;7.00;3.75;;;;;;;19.59;100.00;98342.81;5008201;28;20405;-83
2023/09/30 08:58:26;;;;;;;8.55;3.30;;;;;;;19.52;100.00;98332.41;5009136;28;20410;-83
2023/09/30 09:00:52;;;;;;;5.53;2.80;;;;;;;19.64;100.00;98332.81;5000673;28;20882;-83
2023/09/30 09:03:20;;;;;;;3.88;2.08;;;;;;;19.76;100.00;98331.63;4987225;28;20441;-83
2023/09/30 09:05:54;;;;;;;4.22;2.15;;;;;;;19.85;100.00;98322.59;5008389;28;20793;-82
2023/09/30 09:08:26;;;;;;;5.30;2.70;;;;;;;19.79;100.00;98325.66;5002258;28;20414;-82
2023/09/30 09:10:56;;;;;;;6.32;2.55;;;;;;;19.62;100.00;98337.66;5007030;28;20491;-85
2023/09/30 09:13:23;;;;;;;8.13;3.20;;;;;;;19.34;100.00;98333.09;5012093;28;20447;-82
2023/09/30 09:15:49;;;;;;;6.95;3.40;;;;;;;19.12;100.00;98333.59;5009469;28;20744;-83
2023/09/30 09:18:32;;;;;;;4.15;2.33;;;;;;;19.03;100.00;98355.94;5011804;28;20397;-82
2023/09/30 09:21:10;;;;;;;4.90;2.63;;;;;;;18.99;100.00;98352.25;5018445;28;20401;-83
2023/09/30 09:23:40;;;;;;;5.15;2.63;;;;;;;19.00;100.00;98346.59;5015048;28;20462;-82
2023/09/30 09:26:07;;;;;;;3.60;2.30;;;;;;;18.99;100.00;98345.00;5005523;28;20454;-82
2023/09/30 09:28:35;;;;;;;4.90;2.50;;;;;;;19.01;100.00;98336.66;5008473;28;20479;-82
2023/09/30 09:31:01;;;;;;;3.10;2.03;;;;;;;19.00;100.00;98346.59;5012241;28;20413;-83
2023/09/30 09:33:36;;;;;;;4.38;2.50;;;;;;;18.97;100.00;98354.41;5005428;28;20422;-81
2023/09/30 09:36:03;;;;;;;4.57;2.30;;;;;;;18.92;100.00;98339.16;5026686;28;20492;-81
2023/09/30 09:38:44;;;;;;;3.63;2.47;;;;;;;18.88;100.00;98333.53;5017790;28;20417;-81
2023/09/30 09:41:11;;;;;;;4.10;2.55;;;;;;;18.85;100.00;98334.13;5006107;28;20406;-85
2023/09/30 09:43:40;;;;;;;3.70;2.47;;;;;;;18.84;100.00;98332.50;5026136;28;20477;-86
2023/09/30 09:46:08;;;;;;;4.70;2.50;;;;;;;18.86;100.00;98326.88;5021299;28;20410;-84
2023/09/30 09:48:35;;;;;;;3.25;2.05;;;;;;;18.87;100.00;98325.75;5024002;28;20416;-83
2023/09/30 09:51:03;;;;;;;7.53;3.20;;;;;;;18.78;100.00;98332.84;5011260;28;20497;-81
2023/09/30 09:53:34;;;;;;;5.93;2.95;;;;;;;18.67;100.00;98326.75;5008565;28;20437;-81
2023/09/30 09:56:02;;;;;;;12.57;4.28;;;;;;;18.45;100.00;98324.47;5012866;28;20426;-81
2023/09/30 09:58:33;;;;;;;7.07;3.60;;;;;;;18.35;100.00;98326.38;4998249;28;20889;-81
2023/09/30 10:01:01;;;;;;;5.68;3.00;;;;;;;18.34;100.00;98325.63;5000963;28;20470;-82
2023/09/30 10:03:28;;;;;;;5.57;2.90;;;;;;;18.38;100.00;98336.56;5001518;28;20453;-82
2023/09/30 10:05:54;;;;;;;6.97;3.55;;;;;;;18.43;100.00;98339.22;5002010;28;20421;-83
2023/09/30 10:08:30;;;;;;;6.15;3.13;;;;;;;18.52;100.00;98330.31;5002875;28;20429;-83
2023/09/30 10:10:59;;;;;;;5.63;2.72;;;;;;;18.93;100.00;98340.75;5001539;28;20485;-82
2023/09/30 10:14:03;;;;;;;6.13;3.00;;;;;;;19.26;100.00;98331.84;5011508;28;20425;-82
2023/09/30 10:16:48;;;;;;;4.60;2.67;;;;;;;19.43;100.00;98320.66;5001318;28;20755;-81
2023/09/30 10:19:17;;;;;;;4.20;2.50;;;;;;;19.63;100.00;98317.78;5000586;28;20395;-83
2023/09/30 10:22:20;;;;;;;3.97;2.30;;;;;;;19.71;100.00;98319.03;5000347;28;20411;-84
2023/09/30 10:24:47;;;;;;;5.28;2.38;;;;;;;19.66;100.00;98313.72;5001683;28;20414;-84
2023/09/30 10:27:34;;;;;;;4.72;2.53;;;;;;;19.53;100.00;98315.22;5003744;28;20885;-83
2023/09/30 10:30:11;;;;;;;9.63;3.53;;;;;;;19.34;100.00;98311.63;5004492;28;20757;-82
2023/09/30 10:33:09;;;;;;;7.43;3.55;;;;;;;19.14;100.00;98317.22;5011930;28;20485;-82
2023/09/30 10:35:46;;;;;;;5.93;3.20;;;;;;;18.95;100.00;98315.22;5001064;28;20800;-83
2023/09/30 10:38:38;;;;;;;6.13;2.95;;;;;;;18.82;100.00;98318.56;5012308;28;20415;-82
2023/09/30 10:41:05;;;;;;;8.23;4.07;;;;;;;18.69;100.00;98313.84;5018666;28;20405;-85
2023/09/30 10:43:32;;;;;;;6.10;3.50;;;;;;;18.59;100.00;98313.13;5021228;28;20408;-84
2023/09/30 10:46:00;;;;;;;5.75;3.53;;;;;;;18.57;100.00;98309.94;5012756;28;20410;-83
2023/09/30 10:48:36;;;;;;;6.95;3.70;;;;;;;18.57;100.00;98316.06;5021769;28;20439;-85
2023/09/30 10:51:14;;;;;;;11.25;4.70;;;;;;;18.48;100.00;98301.66;5011741;28;20426;-86
2023/09/30 10:53:46;;;;;;;10.32;4.82;;;;;;;18.42;100.00;98302.75;5006394;28;20419;-83
2023/09/30 10:56:12;;;;;;;9.63;4.47;;;;;;;18.44;100.00;98296.03;5011596;28;20439;-84
2023/09/30 10:58:43;;;;;;;8.50;3.65;;;;;;;18.47;100.00;98287.44;5004597;28;20927;-82
2023/09/30 11:01:12;;;;;;;7.88;3.83;;;;;;;18.50;100.00;98294.13;5017085;28;20480;-82
2023/09/30 11:03:38;;;;;;;8.95;4.18;;;;;;;18.63;100.00;98296.22;5004086;28;20501;-81
2023/09/30 11:06:05;;;;;;;11.45;4.22;;;;;;;18.72;100.00;98294.50;5007188;28;20406;-84
2023/09/30 11:08:32;;;;;;;7.70;3.35;;;;;;;18.89;100.00;98286.03;5011190;28;20403;-81
2023/09/30 11:11:00;;;;;;;9.05;4.30;;;;;;;18.93;100.00;98279.84;5002370;28;20870;-84
2023/09/30 11:13:34;;;;;;;7.57;3.83;;;;;;;18.96;100.00;98275.78;5009243;28;20431;-81
2023/09/30 11:16:02;;;;;;;6.97;3.50;;;;;;;19.02;100.00;98276.56;5001965;28;20494;-83
2023/09/30 11:18:31;;;;;;;8.37;3.67;;;;;;;19.24;100.00;98263.44;5002390;28;20406;-83
2023/09/30 11:21:05;;;;;;;6.75;3.45;;;;;;;19.70;100.00;98269.88;4998877;28;20414;-84
2023/09/30 11:23:31;;;;;;;7.40;3.73;;;;;;;20.12;100.00;98264.75;5012953;28;20403;-84
2023/09/30 11:25:57;;;;;;;15.57;5.13;;;;;;;20.37;100.00;98261.72;5003614;28;20442;-84
2023/09/30 11:28:26;;;;;;;13.23;4.90;;;;;;;20.65;100.00;98262.59;5004673;28;20399;-84